Time;durP1;ratioP1;P1;durP2;ratioP2;P2;SDS_P1;SDS_P2;PMS_P1;PMS_P2;Temp;Humidity;BMP_temperature;BMP_pressure;BME280_temperature;BME280_humidity;BME280_pressure;Samples;Min_cycle;Max_cycle;Signal;HPM_P1;HPM_P2
2022/12/30 00:00:41;;;;;;;63.40;7.82;;;;;;;23.18;30.70;102491.56;21056768;28;20044;-63
2022/12/30 00:10:43;;;;;;;45.60;6.43;;;;;;;23.27;30.88;102511.50;21058669;28;20109;-62
2022/12/30 01:02:39;;;;;;;25.67;5.68;;;;;;;23.11;30.38;102546.78;21056209;28;20036;-62
2022/12/30 01:12:41;;;;;;;16.40;5.05;;;;;;;22.99;30.07;102527.34;21063783;28;20402;-62
2022/12/30 01:22:45;;;;;;;18.60;4.82;;;;;;;23.06;30.04;102547.56;21058910;28;20055;-61
2022/12/30 01:32:49;;;;;;;16.98;5.05;;;;;;;23.05;29.81;102547.81;21040071;28;20052;-62
2022/12/30 01:42:50;;;;;;;13.13;3.90;;;;;;;23.00;29.97;102544.94;21073353;28;20044;-62
2022/12/30 01:53:01;;;;;;;10.50;4.03;;;;;;;22.87;29.93;102540.53;21061029;28;20082;-62
2022/12/30 02:03:04;;;;;;;12.48;3.72;;;;;;;22.91;29.60;102564.09;21042195;28;20067;-62
2022/12/30 02:13:05;;;;;;;9.50;4.32;;;;;;;22.91;29.85;102582.75;21078700;28;20105;-63
2022/12/30 02:23:38;;;;;;;9.32;4.25;;;;;;;22.87;29.82;102589.94;21090738;28;20388;-62
2022/12/30 02:34:12;;;;;;;10.77;3.40;;;;;;;22.66;29.80;102560.84;21083714;28;20452;-62
2022/12/30 02:44:36;;;;;;;10.95;3.40;;;;;;;22.79;29.68;102563.28;21047461;28;20044;-62
2022/12/30 02:54:39;;;;;;;8.00;3.50;;;;;;;22.72;29.59;102560.66;21038752;28;20407;-62
2022/12/30 03:04:49;;;;;;;6.70;3.80;;;;;;;22.69;29.60;102563.97;21063824;28;20044;-62
2022/12/30 03:15:03;;;;;;;6.90;3.58;;;;;;;22.69;29.63;102583.50;21006389;28;20044;-62
2022/12/30 03:35:33;;;;;;;7.25;3.33;;;;;;;22.60;29.76;102576.66;21055696;28;20036;-63
2022/12/30 03:45:34;;;;;;;6.03;3.80;;;;;;;22.60;29.40;102596.19;21085362;28;20548;-62
2022/12/30 03:55:35;;;;;;;7.35;3.60;;;;;;;22.56;29.54;102592.22;21074712;28;20056;-62
2022/12/30 04:05:37;;;;;;;6.40;3.20;;;;;;;22.53;29.86;102595.50;21037271;28;20048;-62
2022/12/30 04:15:38;;;;;;;7.00;3.40;;;;;;;22.41;29.61;102575.22;21078226;28;20040;-62
2022/12/30 04:25:40;;;;;;;4.88;3.22;;;;;;;22.47;29.81;102599.31;21052313;28;20044;-65
2022/12/30 04:35:44;;;;;;;8.98;3.78;;;;;;;22.44;29.76;102594.22;21052895;28;20471;-67
2022/12/30 04:45:46;;;;;;;11.23;4.43;;;;;;;22.38;30.01;102586.88;21064849;28;20503;-65
2022/12/30 04:55:55;;;;;;;7.28;3.38;;;;;;;22.31;29.84;102587.88;21051525;28;20036;-63
2022/12/30 05:05:56;;;;;;;13.48;4.40;;;;;;;22.19;30.37;102567.56;21046282;28;20066;-63
2022/12/30 05:15:58;;;;;;;6.05;3.60;;;;;;;22.25;30.59;102577.69;21046769;28;20044;-65
2022/12/30 05:26:17;;;;;;;5.05;3.50;;;;;;;22.27;30.24;102574.69;21061504;28;20040;-67
2022/12/30 05:36:21;;;;;;;7.53;3.72;;;;;;;22.20;30.59;102557.25;21060686;28;20032;-65
2022/12/30 05:46:23;;;;;;;10.55;4.00;;;;;;;22.22;30.46;102553.13;21046022;28;20560;-63
2022/12/30 05:56:24;;;;;;;12.80;4.85;;;;;;;22.20;30.41;102555.31;21065954;28;20040;-64
2022/12/30 06:06:26;;;;;;;11.43;4.80;;;;;;;22.18;30.19;102554.72;21062096;28;20064;-64
2022/12/30 06:16:27;;;;;;;11.90;4.68;;;;;;;22.15;30.02;102571.94;21060886;28;20550;-65
2022/12/30 06:26:29;;;;;;;12.00;4.68;;;;;;;21.96;30.15;102550.91;21059016;28;20105;-65
2022/12/30 06:36:30;;;;;;;7.82;4.43;;;;;;;22.12;30.13;102593.91;21066702;28;20437;-64
2022/12/30 06:46:31;;;;;;;7.40;4.72;;;;;;;22.07;30.20;102595.44;21062367;28;20078;-65
2022/12/30 06:56:33;;;;;;;7.45;4.60;;;;;;;22.06;29.99;102584.56;21068570;28;20040;-65
2022/12/30 07:06:34;;;;;;;7.80;4.70;;;;;;;22.02;30.20;102580.56;21082735;28;20078;-64
2022/12/30 07:16:35;;;;;;;8.23;4.55;;;;;;;22.02;30.20;102580.56;21075321;28;20090;-66
2022/12/30 07:26:37;;;;;;;6.95;4.90;;;;;;;21.99;30.13;102562.44;21073054;28;20043;-65
2022/12/30 07:36:38;;;;;;;6.97;5.15;;;;;;;21.95;30.07;102560.38;21077918;28;20043;-65
2022/12/30 07:46:39;;;;;;;7.50;4.80;;;;;;;21.94;30.37;102558.66;21043908;28;20044;-65
2022/12/30 07:56:41;;;;;;;9.60;5.03;;;;;;;21.93;30.23;102548.63;21051309;28;20039;-65
2022/12/30 08:06:42;;;;;;;7.63;4.35;;;;;;;21.91;29.85;102556.41;21084196;28;20112;-65
2022/12/30 08:16:43;;;;;;;6.95;4.57;;;;;;;21.88;29.69;102554.09;21030279;28;20056;-65
2022/12/30 08:26:45;;;;;;;7.28;4.15;;;;;;;21.86;29.89;102556.31;21046183;28;20044;-65
2022/12/30 08:36:47;;;;;;;5.00;3.95;;;;;;;21.82;29.69;102561.53;21058677;28;20048;-65
2022/12/30 08:46:48;;;;;;;7.03;4.70;;;;;;;21.79;30.05;102557.28;21071747;28;20036;-66
2022/12/30 08:56:50;;;;;;;6.90;4.30;;;;;;;21.75;29.80;102547.72;21063773;28;20051;-66
2022/12/30 09:06:51;;;;;;;11.90;4.18;;;;;;;21.76;29.94;102540.19;21078122;28;20052;-66
2022/12/30 09:16:52;;;;;;;6.80;4.40;;;;;;;21.71;29.63;102531.75;21058516;28;20120;-66
2022/12/30 09:26:54;;;;;;;7.00;4.43;;;;;;;21.65;29.88;102519.66;21072527;28;20096;-66
2022/12/30 09:36:55;;;;;;;5.38;3.90;;;;;;;21.67;29.86;102525.84;21075673;28;20036;-66
2022/12/30 09:47:28;;;;;;;5.53;3.90;;;;;;;21.62;29.87;102533.22;21066055;28;20056;-65
2022/12/30 09:57:34;;;;;;;5.22;4.22;;;;;;;21.62;29.80;102536.84;21073576;28;20040;-65
2022/12/30 10:08:17;;;;;;;6.28;4.00;;;;;;;21.51;29.89;102541.38;21074884;28;20094;-65
2022/12/30 10:18:28;;;;;;;6.57;4.07;;;;;;;21.58;29.89;102527.34;21043793;28;20051;-65
2022/12/30 10:28:37;;;;;;;6.10;4.00;;;;;;;21.61;29.29;102537.97;21072986;28;20094;-65
2022/12/30 10:38:40;;;;;;;8.00;5.10;;;;;;;21.59;29.48;102522.59;21084092;28;20456;-65
2022/12/30 10:49:09;;;;;;;5.18;4.20;;;;;;;21.55;29.32;102522.25;21088215;28;20048;-65
2022/12/30 10:59:14;;;;;;;5.63;4.22;;;;;;;21.48;29.75;102483.38;21086402;28;20086;-65
2022/12/30 11:09:22;;;;;;;5.88;4.45;;;;;;;21.56;29.37;102502.47;21087924;28;20048;-65
2022/12/30 11:19:29;;;;;;;5.70;4.50;;;;;;;21.50;29.35;102477.56;21077085;28;20040;-65
2022/12/30 11:29:34;;;;;;;4.95;4.45;;;;;;;21.55;29.47;102494.38;21075400;28;20039;-66
2022/12/30 11:39:35;;;;;;;6.40;4.50;;;;;;;21.77;29.25;102550.28;21083080;28;20069;-66
2022/12/30 11:49:46;;;;;;;5.97;4.70;;;;;;;21.75;29.33;102561.66;21075532;28;20422;-65
2022/12/30 11:59:54;;;;;;;5.07;4.15;;;;;;;21.47;29.74;102536.56;21081296;28;20044;-65
2022/12/30 12:10:30;;;;;;;6.03;4.68;;;;;;;21.58;29.74;102571.91;21081257;28;20487;-66
2022/12/30 12:20:42;;;;;;;5.82;4.45;;;;;;;21.75;29.61;102586.72;21070975;28;20036;-65
2022/12/30 12:31:20;;;;;;;6.38;4.53;;;;;;;21.68;29.59;102586.03;21081872;28;20044;-66
2022/12/30 12:41:33;;;;;;;5.93;5.00;;;;;;;21.72;29.72;102578.03;21066686;28;20062;-66
2022/12/30 12:51:46;;;;;;;6.28;4.43;;;;;;;21.69;29.81;102586.88;21060094;28;20094;-65
2022/12/30 13:02:27;;;;;;;6.65;4.68;;;;;;;21.66;29.80;102584.56;21069021;28;20150;-66
2022/12/30 13:12:33;;;;;;;8.40;4.53;;;;;;;21.70;30.02;102575.47;21068973;28;20093;-66
2022/12/30 13:22:36;;;;;;;6.15;4.65;;;;;;;21.65;30.01;102564.22;21057689;28;20483;-65
2022/12/30 13:32:55;;;;;;;7.53;5.05;;;;;;;21.67;29.85;102564.84;21012391;28;20445;-65
2022/12/30 13:43:22;;;;;;;11.07;5.40;;;;;;;21.69;30.30;102561.81;21032338;28;20110;-65
2022/12/30 13:53:34;;;;;;;7.50;5.00;;;;;;;21.68;30.26;102560.97;21037380;28;20083;-65
2022/12/30 14:03:38;;;;;;;8.85;5.38;;;;;;;21.70;29.95;102564.34;21039899;28;20044;-65
2022/12/30 14:13:43;;;;;;;11.60;6.90;;;;;;;21.50;30.26;102517.41;21064887;28;20460;-66
2022/12/30 14:23:48;;;;;;;13.93;7.45;;;;;;;21.72;30.38;102562.16;21080149;28;20104;-66
2022/12/30 14:33:50;;;;;;;15.55;9.05;;;;;;;21.63;29.96;102563.66;21041292;28;20044;-66
2022/12/30 14:44:21;;;;;;;20.83;11.00;;;;;;;21.66;30.21;102565.91;21074763;28;20040;-67
2022/12/30 14:54:36;;;;;;;20.33;10.73;;;;;;;21.59;30.03;102551.31;21056461;28;20040;-66
2022/12/30 15:04:38;;;;;;;16.25;10.27;;;;;;;21.74;29.84;102564.69;21049968;28;20040;-66
2022/12/30 15:14:46;;;;;;;15.38;10.00;;;;;;;21.71;29.88;102549.31;21044994;28;20235;-67
2022/12/30 15:24:47;;;;;;;18.60;10.55;;;;;;;21.73;29.84;102547.13;21041142;28;20113;-66
2022/12/30 15:34:49;;;;;;;19.20;9.30;;;;;;;21.76;30.38;102535.50;21037912;28;20043;-66
2022/12/30 15:44:51;;;;;;;14.73;9.95;;;;;;;21.40;30.50;102463.47;21040296;28;20619;-65
2022/12/30 15:54:57;;;;;;;15.65;9.27;;;;;;;21.72;30.63;102494.44;21045111;28;20105;-66
2022/12/30 16:05:20;;;;;;;12.60;7.90;;;;;;;21.73;30.57;102490.56;21068073;28;20044;-66
2022/12/30 16:15:38;;;;;;;11.35;6.90;;;;;;;21.75;31.36;102483.63;21074918;28;20172;-64
2022/12/30 16:25:40;;;;;;;11.20;6.97;;;;;;;21.73;33.69;102438.47;21069201;28;20048;-66
2022/12/30 16:35:46;;;;;;;24.52;6.78;;;;;;;21.64;33.39;102411.28;21059487;28;20051;-66
2022/12/30 16:45:47;;;;;;;35.92;7.72;;;;;;;21.83;33.47;102405.22;21055866;28;20487;-66
2022/12/30 16:55:51;;;;;;;25.65;7.78;;;;;;;21.69;33.48;102372.34;21059125;28;20031;-67
2022/12/30 17:05:56;;;;;;;31.23;7.78;;;;;;;21.89;34.67;102383.00;21035227;28;20442;-66
2022/12/30 17:15:59;;;;;;;50.35;8.30;;;;;;;21.90;35.14;102356.81;21061600;28;20059;-67
2022/12/30 17:26:01;;;;;;;40.38;7.25;;;;;;;21.77;34.33;102325.41;21040909;28;20037;-66
2022/12/30 17:36:05;;;;;;;21.63;7.22;;;;;;;21.90;34.84;102338.16;21042663;28;20557;-67
2022/12/30 17:46:15;;;;;;;27.08;7.88;;;;;;;21.92;34.05;102310.03;21060190;28;20052;-66
2022/12/30 17:56:17;;;;;;;13.73;6.03;;;;;;;21.91;34.01;102308.34;21072369;28;20560;-66
2022/12/30 18:06:21;;;;;;;13.15;6.15;;;;;;;21.87;33.98;102290.44;21067339;28;20097;-67
2022/12/30 18:16:25;;;;;;;13.15;6.20;;;;;;;21.86;33.74;102286.00;21075100;28;20548;-66
2022/12/30 18:26:27;;;;;;;15.00;5.68;;;;;;;21.85;33.56;102275.91;21072857;28;20429;-66
2022/12/30 18:36:30;;;;;;;9.18;5.75;;;;;;;21.83;33.60;102267.81;21074751;28;20040;-66
2022/12/30 18:46:34;;;;;;;14.63;5.78;;;;;;;21.80;33.28;102265.53;21067237;28;20040;-66
2022/12/30 18:56:36;;;;;;;11.43;5.72;;;;;;;21.80;33.16;102246.88;21080434;28;20044;-66
2022/12/30 19:06:40;;;;;;;9.23;5.55;;;;;;;21.67;33.04;102222.19;21088231;28;20040;-66
2022/12/30 19:16:42;;;;;;;9.35;5.38;;;;;;;21.70;33.02;102221.66;21084899;28;20036;-66
2022/12/30 19:26:47;;;;;;;9.35;4.97;;;;;;;21.73;33.15;102228.66;21086037;28;20059;-66
2022/12/30 19:36:49;;;;;;;11.68;4.55;;;;;;;21.66;33.48;102217.69;21083840;28;20450;-66
2022/12/30 19:46:56;;;;;;;9.90;4.88;;;;;;;21.63;33.27;102207.06;21084822;28;20036;-67
2022/12/30 19:56:57;;;;;;;14.60;6.03;;;;;;;21.67;33.55;102216.59;21080829;28;20040;-66
2022/12/30 20:07:01;;;;;;;6.60;4.60;;;;;;;21.66;33.31;102206.53;21066794;28;20048;-66
2022/12/30 20:17:03;;;;;;;8.95;5.32;;;;;;;21.59;33.52;102182.78;21083485;28;20048;-66
2022/12/30 20:27:04;;;;;;;6.82;4.60;;;;;;;21.63;33.63;102195.94;21081338;28;20056;-66
2022/12/30 20:37:05;;;;;;;6.40;4.20;;;;;;;21.60;33.41;102185.28;21067573;28;20035;-65
2022/12/30 20:47:07;;;;;;;10.68;5.45;;;;;;;21.56;33.28;102178.53;21079628;28;20047;-65
2022/12/30 20:57:08;;;;;;;7.03;4.57;;;;;;;21.62;33.36;102191.44;21040498;28;20099;-65
2022/12/30 21:07:13;;;;;;;6.68;4.70;;;;;;;21.56;33.13;102178.53;21076233;28;20044;-67
2022/12/30 21:17:14;;;;;;;5.97;4.28;;;;;;;21.54;33.43;102175.19;21077189;28;20044;-67
2022/12/30 21:27:16;;;;;;;5.55;4.32;;;;;;;21.42;32.92;102171.63;21076882;28;20491;-65
2022/12/30 21:37:20;;;;;;;5.10;4.43;;;;;;;21.49;33.18;102205.75;21077591;28;20040;-65
2022/12/30 22:08:19;;;;;;;4.78;3.67;;;;;;;21.30;33.21;102191.19;21074469;28;20036;-66
2022/12/30 22:18:20;;;;;;;4.47;3.70;;;;;;;21.45;33.12;102226.84;21072681;28;20552;-66
2022/12/30 22:28:22;;;;;;;5.78;3.90;;;;;;;21.42;33.14;102244.88;21075451;28;20032;-66
2022/12/30 22:38:26;;;;;;;7.13;4.30;;;;;;;21.41;32.81;102254.34;21091245;28;20036;-65
2022/12/30 22:48:29;;;;;;;5.50;4.53;;;;;;;21.40;33.03;102262.94;21089239;28;20028;-66
2022/12/30 22:58:34;;;;;;;5.75;3.90;;;;;;;21.34;33.03;102256.44;21078183;28;20044;-66
2022/12/30 23:08:37;;;;;;;4.90;3.47;;;;;;;21.35;32.75;102251.69;21088843;28;20096;-67
2022/12/30 23:18:41;;;;;;;5.65;4.20;;;;;;;21.48;32.35;102282.00;21086201;28;20036;-67
2022/12/30 23:28:42;;;;;;;5.53;3.85;;;;;;;21.38;32.53;102260.41;21084349;28;20424;-66
2022/12/30 23:38:45;;;;;;;7.35;4.32;;;;;;;21.55;32.24;102282.69;21083675;28;20164;-66
2022/12/30 23:48:47;;;;;;;6.55;4.07;;;;;;;21.56;32.42;102273.25;21085243;28;20074;-66
2022/12/30 23:58:48;;;;;;;5.32;4.40;;;;;;;21.67;32.20;102277.91;21078045;28;20070;-67
